Hermagor, Austria
Current Conditions -  °F | °C
As of 6:50 PM on Saturday 22 Nov 2014 (Local Time) from LOWK Reporting Station
Broken Clouds Broken Clouds  
Wind Chill: 39°   Ceiling: 24000
Heat Index: 39°   Visibility: 6mi
Dew Point: 36°   Wind: 2mph
Humidity: 87%   Direction: 320°NW
Pressure: 30.27"   Gusts: NA
Location:  46.62°N, 13.36°E
Report Text: LOWK 221650Z 32002KT 9999 FEW015 BKN240 04/02 Q1025 NOSIG
Loading
Personal Weather Stations






























Interactive Weather Map New forecast layout! Learn more

10-Day Weather Forecast

Advertisements
Track Severe Weather on mobile